Pagrindinis puslapis
METAR-TAF:

METAR-TAF

Oro uostai :

Takas, Tailandas

platuma: 16-53N, ilguma: 099-09E, Aukštis: 121 m

METAR: trūkstamas

Laikas: 01:00 (18:00 UTC)

Prognozė

Ataskaita buvo paskelbta 1 valandą ir 0 minutes, ne 17:00 UTC
Prognozė galioja nuo 30 metu 18 UTC su 01 metu 18 UTC
Vėjas 5 kt iš Pietų/Pietvakarių
Matomumas 10 km arba daugiau
Išsisklaidę debesys ne aukštis 2600 ft
Laikinai
nuo 01 metu 06 UTC su 01 metu 12 UTC
Vėjas 15 kt iš Vakarų/Pietvakarių su gūsio iki 25 kt
Matomumas: 4000 m
Mažai debesys ne aukštis 2500 ft, Liūtiniai kamuoliniai debesys.
Su prošvaistėmis ne aukštis 3500 ft
perkūnija, lietus

TAF: VTPT 301700Z 3018/0118 20005KT 9999 SCT026 TEMPO 0106/0112 24015G25KT 4000 TSRA FEW025CB BKN035

Orai ataskaitas ir orų prognozės (METAR, TAF).

turimą stotys yra geltonos ir raudonos taškus žemėlapyje.

Perkelti pele per norėdami pamatyti stoties vardą.

Tada spustelėkite, norėdami matyti oro stebėjimo ir prognozės.

Norėdami pakeisti žemėlapį: spustelėkite ant žalios mygtukų su juodo kryžiaus žemyn,; žalią mygtuką su brūkšneliu, jei norite nutolinti; arba žalių rodyklių gretimoms žemėlapius.


METAR-TAF: